Arkadelphia, Alabama
Current Conditions -  °F | °C
As of 12:35 AM on Wednesday 26 Nov 2014 (Local Time) from KJFX Reporting Station
Clear Clear  
Wind Chill: -1°   Ceiling: Unl
Heat Index:   Visibility: 10mi
Dew Point:   Wind: 6mph
Humidity: 87%   Direction: 290°WNW
Pressure: 30.13"   Gusts: NA
Location:  33.9511°N, 87.0046°W
Report Text: KJFX 260635Z AUTO 29005KT 10SM CLR 02/00 A3013 RMK A02 P-128
Loading
Personal Weather Stations






























Interactive Weather Map New forecast layout! Learn more

10-Day Weather Forecast

Advertisements
Track Severe Weather on mobile